sensor_id;sensor_type;location;lat;lon;timestamp;temperature;humidity
65203;HTU21D;51788;45.124;38.966;2023-11-21T00:01:54;5.51;87.22
65203;HTU21D;51788;45.124;38.966;2023-11-21T00:04:21;5.45;87.15
65203;HTU21D;51788;45.124;38.966;2023-11-21T00:06:47;5.42;87.28
65203;HTU21D;51788;45.124;38.966;2023-11-21T00:09:13;5.45;87.32
65203;HTU21D;51788;45.124;38.966;2023-11-21T00:11:41;5.43;87.28
65203;HTU21D;51788;45.124;38.966;2023-11-21T00:14:07;5.42;87.41
65203;HTU21D;51788;45.124;38.966;2023-11-21T00:16:34;5.42;87.41
65203;HTU21D;51788;45.124;38.966;2023-11-21T00:19:00;5.40;87.54
65203;HTU21D;51788;45.124;38.966;2023-11-21T00:21:26;5.41;87.59
65203;HTU21D;51788;45.124;38.966;2023-11-21T00:23:52;5.43;87.63
65203;HTU21D;51788;45.124;38.966;2023-11-21T00:26:18;5.40;87.54
65203;HTU21D;51788;45.124;38.966;2023-11-21T00:28:50;5.42;87.51
65203;HTU21D;51788;45.124;38.966;2023-11-21T00:31:16;5.45;87.53
65203;HTU21D;51788;45.124;38.966;2023-11-21T00:33:42;5.49;87.42
65203;HTU21D;51788;45.124;38.966;2023-11-21T00:36:09;5.47;87.44
65203;HTU21D;51788;45.124;38.966;2023-11-21T00:38:36;5.50;87.46
65203;HTU21D;51788;45.124;38.966;2023-11-21T00:41:02;5.48;87.40
65203;HTU21D;51788;45.124;38.966;2023-11-21T00:43:28;5.45;87.56
65203;HTU21D;51788;45.124;38.966;2023-11-21T00:45:54;5.43;87.78
65203;HTU21D;51788;45.124;38.966;2023-11-21T00:48:20;5.39;87.84
65203;HTU21D;51788;45.124;38.966;2023-11-21T00:50:47;5.38;87.90
65203;HTU21D;51788;45.124;38.966;2023-11-21T00:53:13;5.30;87.94
65203;HTU21D;51788;45.124;38.966;2023-11-21T00:55:39;5.26;87.99
65203;HTU21D;51788;45.124;38.966;2023-11-21T00:58:06;5.22;87.99
65203;HTU21D;51788;45.124;38.966;2023-11-21T01:00:35;5.18;88.09
65203;HTU21D;51788;45.124;38.966;2023-11-21T01:03:01;5.16;88.31
65203;HTU21D;51788;45.124;38.966;2023-11-21T01:05:28;5.13;88.28
65203;HTU21D;51788;45.124;38.966;2023-11-21T01:07:55;5.06;88.36
65203;HTU21D;51788;45.124;38.966;2023-11-21T01:10:21;5.02;88.48
65203;HTU21D;51788;45.124;38.966;2023-11-21T01:12:47;5.01;88.46
65203;HTU21D;51788;45.124;38.966;2023-11-21T01:15:15;4.98;88.51
65203;HTU21D;51788;45.124;38.966;2023-11-21T01:17:41;4.98;88.52
65203;HTU21D;51788;45.124;38.966;2023-11-21T01:20:07;5.01;88.51
65203;HTU21D;51788;45.124;38.966;2023-11-21T01:22:38;4.94;88.47
65203;HTU21D;51788;45.124;38.966;2023-11-21T01:25:04;4.91;88.57
65203;HTU21D;51788;45.124;38.966;2023-11-21T01:27:34;4.90;88.70
65203;HTU21D;51788;45.124;38.966;2023-11-21T01:30:02;4.92;88.67
65203;HTU21D;51788;45.124;38.966;2023-11-21T01:32:28;4.90;88.59
65203;HTU21D;51788;45.124;38.966;2023-11-21T01:34:54;4.91;88.61
65203;HTU21D;51788;45.124;38.966;2023-11-21T01:37:21;4.90;88.57
65203;HTU21D;51788;45.124;38.966;2023-11-21T01:39:48;4.90;88.60
65203;HTU21D;51788;45.124;38.966;2023-11-21T01:42:14;4.91;88.64
65203;HTU21D;51788;45.124;38.966;2023-11-21T01:44:40;4.89;88.56
65203;HTU21D;51788;45.124;38.966;2023-11-21T01:47:08;4.89;88.63
65203;HTU21D;51788;45.124;38.966;2023-11-21T01:49:35;4.93;88.59
65203;HTU21D;51788;45.124;38.966;2023-11-21T01:52:02;4.93;88.54
65203;HTU21D;51788;45.124;38.966;2023-11-21T01:54:30;4.96;88.50
65203;HTU21D;51788;45.124;38.966;2023-11-21T01:56:58;4.97;88.47
65203;HTU21D;51788;45.124;38.966;2023-11-21T01:59:35;4.96;88.42
65203;HTU21D;51788;45.124;38.966;2023-11-21T02:02:05;4.95;88.40
65203;HTU21D;51788;45.124;38.966;2023-11-21T02:04:33;4.94;88.41
65203;HTU21D;51788;45.124;38.966;2023-11-21T02:07:00;4.95;88.43
65203;HTU21D;51788;45.124;38.966;2023-11-21T02:09:27;4.95;88.45
65203;HTU21D;51788;45.124;38.966;2023-11-21T02:11:55;4.95;88.44
65203;HTU21D;51788;45.124;38.966;2023-11-21T02:14:21;4.91;88.21
65203;HTU21D;51788;45.124;38.966;2023-11-21T02:16:50;4.92;88.25
65203;HTU21D;51788;45.124;38.966;2023-11-21T02:19:21;4.93;88.18
65203;HTU21D;51788;45.124;38.966;2023-11-21T02:21:57;4.93;87.88
65203;HTU21D;51788;45.124;38.966;2023-11-21T02:24:30;4.92;87.81
65203;HTU21D;51788;45.124;38.966;2023-11-21T02:26:57;4.95;87.86
65203;HTU21D;51788;45.124;38.966;2023-11-21T02:29:23;4.94;87.80
65203;HTU21D;51788;45.124;38.966;2023-11-21T02:31:55;4.96;87.67
65203;HTU21D;51788;45.124;38.966;2023-11-21T02:34:21;4.94;87.66
65203;HTU21D;51788;45.124;38.966;2023-11-21T02:36:48;4.94;87.67
65203;HTU21D;51788;45.124;38.966;2023-11-21T02:39:17;4.94;87.58
65203;HTU21D;51788;45.124;38.966;2023-11-21T02:41:44;4.93;87.57
65203;HTU21D;51788;45.124;38.966;2023-11-21T02:44:10;4.94;87.61
65203;HTU21D;51788;45.124;38.966;2023-11-21T02:46:37;4.97;87.51
65203;HTU21D;51788;45.124;38.966;2023-11-21T02:49:05;4.97;87.49
65203;HTU21D;51788;45.124;38.966;2023-11-21T02:51:36;5.01;87.47
65203;HTU21D;51788;45.124;38.966;2023-11-21T02:54:06;5.02;87.28
65203;HTU21D;51788;45.124;38.966;2023-11-21T02:56:34;5.04;87.30
65203;HTU21D;51788;45.124;38.966;2023-11-21T02:59:00;5.07;87.19
65203;HTU21D;51788;45.124;38.966;2023-11-21T03:01:27;5.08;87.13
65203;HTU21D;51788;45.124;38.966;2023-11-21T03:03:53;5.09;87.06
65203;HTU21D;51788;45.124;38.966;2023-11-21T03:06:21;5.07;87.06
65203;HTU21D;51788;45.124;38.966;2023-11-21T03:08:47;5.10;87.20
65203;HTU21D;51788;45.124;38.966;2023-11-21T03:11:13;5.11;87.09
65203;HTU21D;51788;45.124;38.966;2023-11-21T03:13:40;5.10;87.02
65203;HTU21D;51788;45.124;38.966;2023-11-21T03:16:10;5.07;87.08
65203;HTU21D;51788;45.124;38.966;2023-11-21T03:18:37;5.07;87.12
65203;HTU21D;51788;45.124;38.966;2023-11-21T03:21:04;5.08;87.16
65203;HTU21D;51788;45.124;38.966;2023-11-21T03:23:31;5.07;87.15
65203;HTU21D;51788;45.124;38.966;2023-11-21T03:25:57;5.06;87.22
65203;HTU21D;51788;45.124;38.966;2023-11-21T03:28:25;5.03;87.22
65203;HTU21D;51788;45.124;38.966;2023-11-21T03:30:52;5.00;87.33
65203;HTU21D;51788;45.124;38.966;2023-11-21T03:33:19;4.98;87.46
65203;HTU21D;51788;45.124;38.966;2023-11-21T03:35:45;4.95;87.47
65203;HTU21D;51788;45.124;38.966;2023-11-21T03:38:11;4.90;87.47
65203;HTU21D;51788;45.124;38.966;2023-11-21T03:40:38;4.87;87.68
65203;HTU21D;51788;45.124;38.966;2023-11-21T03:43:05;4.89;87.80
65203;HTU21D;51788;45.124;38.966;2023-11-21T03:45:32;4.87;87.84
65203;HTU21D;51788;45.124;38.966;2023-11-21T03:47:58;4.88;87.89
65203;HTU21D;51788;45.124;38.966;2023-11-21T03:50:24;4.82;87.82
65203;HTU21D;51788;45.124;38.966;2023-11-21T03:52:50;4.76;87.95
65203;HTU21D;51788;45.124;38.966;2023-11-21T03:55:16;4.72;88.07
65203;HTU21D;51788;45.124;38.966;2023-11-21T03:57:42;4.69;88.15
65203;HTU21D;51788;45.124;38.966;2023-11-21T04:00:09;4.65;88.20
65203;HTU21D;51788;45.124;38.966;2023-11-21T04:02:38;4.67;88.22
65203;HTU21D;51788;45.124;38.966;2023-11-21T04:05:05;4.69;88.25
65203;HTU21D;51788;45.124;38.966;2023-11-21T04:07:32;4.64;88.21
65203;HTU21D;51788;45.124;38.966;2023-11-21T04:09:59;4.63;88.32
65203;HTU21D;51788;45.124;38.966;2023-11-21T04:12:25;4.65;88.35
65203;HTU21D;51788;45.124;38.966;2023-11-21T04:14:52;4.68;88.36
65203;HTU21D;51788;45.124;38.966;2023-11-21T04:17:18;4.69;88.35
65203;HTU21D;51788;45.124;38.966;2023-11-21T04:19:45;4.75;88.36
65203;HTU21D;51788;45.124;38.966;2023-11-21T04:22:12;4.74;88.32
65203;HTU21D;51788;45.124;38.966;2023-11-21T04:24:38;4.76;88.26
65203;HTU21D;51788;45.124;38.966;2023-11-21T04:27:04;4.79;88.31
65203;HTU21D;51788;45.124;38.966;2023-11-21T04:29:30;4.79;88.28
65203;HTU21D;51788;45.124;38.966;2023-11-21T04:31:56;4.78;88.25
65203;HTU21D;51788;45.124;38.966;2023-11-21T04:34:22;4.78;88.23
65203;HTU21D;51788;45.124;38.966;2023-11-21T04:36:49;4.81;88.31
65203;HTU21D;51788;45.124;38.966;2023-11-21T04:39:15;4.84;88.29
65203;HTU21D;51788;45.124;38.966;2023-11-21T04:41:41;4.87;88.22
65203;HTU21D;51788;45.124;38.966;2023-11-21T04:44:08;4.89;88.24
65203;HTU21D;51788;45.124;38.966;2023-11-21T04:46:34;4.89;88.22
65203;HTU21D;51788;45.124;38.966;2023-11-21T04:49:00;4.92;88.25
65203;HTU21D;51788;45.124;38.966;2023-11-21T04:51:26;4.88;88.34
65203;HTU21D;51788;45.124;38.966;2023-11-21T04:53:53;4.89;88.38
65203;HTU21D;51788;45.124;38.966;2023-11-21T04:56:18;4.92;88.41
65203;HTU21D;51788;45.124;38.966;2023-11-21T04:58:45;4.91;88.38
65203;HTU21D;51788;45.124;38.966;2023-11-21T05:01:11;4.93;88.39
65203;HTU21D;51788;45.124;38.966;2023-11-21T05:03:37;4.92;88.47
65203;HTU21D;51788;45.124;38.966;2023-11-21T05:06:04;4.92;88.52
65203;HTU21D;51788;45.124;38.966;2023-11-21T05:08:30;4.88;88.55
65203;HTU21D;51788;45.124;38.966;2023-11-21T05:10:57;4.86;88.51
65203;HTU21D;51788;45.124;38.966;2023-11-21T05:13:23;4.84;88.58
65203;HTU21D;51788;45.124;38.966;2023-11-21T05:15:54;4.82;88.64
65203;HTU21D;51788;45.124;38.966;2023-11-21T05:18:21;4.81;88.64
65203;HTU21D;51788;45.124;38.966;2023-11-21T05:20:48;4.82;88.66
65203;HTU21D;51788;45.124;38.966;2023-11-21T05:23:13;4.82;88.52
65203;HTU21D;51788;45.124;38.966;2023-11-21T05:25:40;4.82;88.48
65203;HTU21D;51788;45.124;38.966;2023-11-21T05:28:07;4.82;88.48
65203;HTU21D;51788;45.124;38.966;2023-11-21T05:30:33;4.83;88.47
65203;HTU21D;51788;45.124;38.966;2023-11-21T05:32:59;4.80;88.44
65203;HTU21D;51788;45.124;38.966;2023-11-21T05:35:25;4.78;88.56
65203;HTU21D;51788;45.124;38.966;2023-11-21T05:37:52;4.75;88.59
65203;HTU21D;51788;45.124;38.966;2023-11-21T05:40:18;4.72;88.71
65203;HTU21D;51788;45.124;38.966;2023-11-21T05:42:44;4.72;88.79
65203;HTU21D;51788;45.124;38.966;2023-11-21T05:45:11;4.73;88.76
65203;HTU21D;51788;45.124;38.966;2023-11-21T05:47:38;4.73;88.86
65203;HTU21D;51788;45.124;38.966;2023-11-21T05:50:07;4.74;88.89
65203;HTU21D;51788;45.124;38.966;2023-11-21T05:52:44;4.77;88.93
65203;HTU21D;51788;45.124;38.966;2023-11-21T05:55:10;4.80;88.84
65203;HTU21D;51788;45.124;38.966;2023-11-21T05:57:41;4.82;88.87
65203;HTU21D;51788;45.124;38.966;2023-11-21T06:00:09;4.86;88.86
65203;HTU21D;51788;45.124;38.966;2023-11-21T06:02:54;4.86;88.85
65203;HTU21D;51788;45.124;38.966;2023-11-21T06:05:22;4.87;88.91
65203;HTU21D;51788;45.124;38.966;2023-11-21T06:07:49;4.90;88.86
65203;HTU21D;51788;45.124;38.966;2023-11-21T06:10:16;4.89;88.90
65203;HTU21D;51788;45.124;38.966;2023-11-21T06:12:43;4.91;88.90
65203;HTU21D;51788;45.124;38.966;2023-11-21T06:15:10;4.94;88.84
65203;HTU21D;51788;45.124;38.966;2023-11-21T06:17:40;4.98;88.76
65203;HTU21D;51788;45.124;38.966;2023-11-21T06:20:07;5.04;88.70
65203;HTU21D;51788;45.124;38.966;2023-11-21T06:22:43;5.05;88.54
65203;HTU21D;51788;45.124;38.966;2023-11-21T06:25:10;5.05;88.56
65203;HTU21D;51788;45.124;38.966;2023-11-21T06:27:42;5.07;88.53
65203;HTU21D;51788;45.124;38.966;2023-11-21T06:30:09;5.06;88.54
65203;HTU21D;51788;45.124;38.966;2023-11-21T06:32:39;5.05;88.47
65203;HTU21D;51788;45.124;38.966;2023-11-21T06:35:08;5.04;88.48
65203;HTU21D;51788;45.124;38.966;2023-11-21T06:37:37;5.03;88.37
65203;HTU21D;51788;45.124;38.966;2023-11-21T06:40:03;5.04;88.36
65203;HTU21D;51788;45.124;38.966;2023-11-21T06:42:30;5.05;88.44
65203;HTU21D;51788;45.124;38.966;2023-11-21T06:44:56;5.09;88.42
65203;HTU21D;51788;45.124;38.966;2023-11-21T06:47:23;5.11;88.31
65203;HTU21D;51788;45.124;38.966;2023-11-21T06:49:55;5.12;88.28
65203;HTU21D;51788;45.124;38.966;2023-11-21T06:52:21;5.18;88.26
65203;HTU21D;51788;45.124;38.966;2023-11-21T06:54:47;5.20;88.18
65203;HTU21D;51788;45.124;38.966;2023-11-21T06:57:15;5.20;88.18
65203;HTU21D;51788;45.124;38.966;2023-11-21T06:59:41;5.20;88.19
65203;HTU21D;51788;45.124;38.966;2023-11-21T07:02:07;5.22;88.25
65203;HTU21D;51788;45.124;38.966;2023-11-21T07:04:35;5.25;88.21
65203;HTU21D;51788;45.124;38.966;2023-11-21T07:07:02;5.25;88.12
65203;HTU21D;51788;45.124;38.966;2023-11-21T07:09:29;5.25;88.05
65203;HTU21D;51788;45.124;38.966;2023-11-21T07:11:56;5.27;88.02
65203;HTU21D;51788;45.124;38.966;2023-11-21T07:14:22;5.30;87.93
65203;HTU21D;51788;45.124;38.966;2023-11-21T07:16:48;5.34;87.84
65203;HTU21D;51788;45.124;38.966;2023-11-21T07:19:14;5.36;87.74
65203;HTU21D;51788;45.124;38.966;2023-11-21T07:21:40;5.40;87.70
65203;HTU21D;51788;45.124;38.966;2023-11-21T07:24:07;5.45;87.62
65203;HTU21D;51788;45.124;38.966;2023-11-21T07:26:34;5.48;87.52
65203;HTU21D;51788;45.124;38.966;2023-11-21T07:29:04;5.49;87.43
65203;HTU21D;51788;45.124;38.966;2023-11-21T07:31:30;5.47;87.41
65203;HTU21D;51788;45.124;38.966;2023-11-21T07:33:57;5.47;87.43
65203;HTU21D;51788;45.124;38.966;2023-11-21T07:36:23;5.43;87.51
65203;HTU21D;51788;45.124;38.966;2023-11-21T07:38:50;5.47;87.46
65203;HTU21D;51788;45.124;38.966;2023-11-21T07:41:17;5.47;87.36
65203;HTU21D;51788;45.124;38.966;2023-11-21T07:43:44;5.47;87.42
65203;HTU21D;51788;45.124;38.966;2023-11-21T07:46:11;5.47;87.40
65203;HTU21D;51788;45.124;38.966;2023-11-21T07:48:39;5.47;87.44
65203;HTU21D;51788;45.124;38.966;2023-11-21T07:51:05;5.41;87.40
65203;HTU21D;51788;45.124;38.966;2023-11-21T07:53:32;5.36;87.41
65203;HTU21D;51788;45.124;38.966;2023-11-21T07:56:03;5.32;87.47
65203;HTU21D;51788;45.124;38.966;2023-11-21T07:58:29;5.31;87.57
65203;HTU21D;51788;45.124;38.966;2023-11-21T08:00:56;5.32;87.57
65203;HTU21D;51788;45.124;38.966;2023-11-21T08:03:22;5.33;87.67
65203;HTU21D;51788;45.124;38.966;2023-11-21T08:05:48;5.37;87.59
65203;HTU21D;51788;45.124;38.966;2023-11-21T08:08:14;5.32;87.57
65203;HTU21D;51788;45.124;38.966;2023-11-21T08:10:40;5.35;87.65
65203;HTU21D;51788;45.124;38.966;2023-11-21T08:13:07;5.35;87.48
65203;HTU21D;51788;45.124;38.966;2023-11-21T08:15:34;5.36;87.19
65203;HTU21D;51788;45.124;38.966;2023-11-21T08:18:02;5.37;87.15
65203;HTU21D;51788;45.124;38.966;2023-11-21T08:20:29;5.39;86.96
65203;HTU21D;51788;45.124;38.966;2023-11-21T08:22:55;5.38;87.03
65203;HTU21D;51788;45.124;38.966;2023-11-21T08:25:22;5.39;86.76
65203;HTU21D;51788;45.124;38.966;2023-11-21T08:27:48;5.43;86.45
65203;HTU21D;51788;45.124;38.966;2023-11-21T08:30:15;5.45;85.80
65203;HTU21D;51788;45.124;38.966;2023-11-21T08:32:42;5.34;85.46
65203;HTU21D;51788;45.124;38.966;2023-11-21T08:35:08;5.33;85.20
65203;HTU21D;51788;45.124;38.966;2023-11-21T08:37:35;5.33;84.91
65203;HTU21D;51788;45.124;38.966;2023-11-21T08:40:05;5.34;84.71
65203;HTU21D;51788;45.124;38.966;2023-11-21T08:42:35;5.34;84.64
65203;HTU21D;51788;45.124;38.966;2023-11-21T08:45:01;5.21;84.76
65203;HTU21D;51788;45.124;38.966;2023-11-21T08:47:28;5.23;84.93
65203;HTU21D;51788;45.124;38.966;2023-11-21T08:49:53;5.30;84.81
65203;HTU21D;51788;45.124;38.966;2023-11-21T08:52:20;5.34;84.60
65203;HTU21D;51788;45.124;38.966;2023-11-21T08:54:49;5.35;84.80
65203;HTU21D;51788;45.124;38.966;2023-11-21T08:57:22;5.34;84.81
65203;HTU21D;51788;45.124;38.966;2023-11-21T08:59:47;5.31;84.86
65203;HTU21D;51788;45.124;38.966;2023-11-21T09:02:13;5.34;84.81
65203;HTU21D;51788;45.124;38.966;2023-11-21T09:04:39;5.30;84.55
65203;HTU21D;51788;45.124;38.966;2023-11-21T09:07:05;5.31;84.56
65203;HTU21D;51788;45.124;38.966;2023-11-21T09:09:31;5.36;84.37
65203;HTU21D;51788;45.124;38.966;2023-11-21T09:11:57;5.38;84.11
65203;HTU21D;51788;45.124;38.966;2023-11-21T09:14:26;5.41;83.77
65203;HTU21D;51788;45.124;38.966;2023-11-21T09:16:52;5.42;83.75
65203;HTU21D;51788;45.124;38.966;2023-11-21T09:19:18;5.42;83.67
65203;HTU21D;51788;45.124;38.966;2023-11-21T09:21:44;5.45;83.74
65203;HTU21D;51788;45.124;38.966;2023-11-21T09:24:10;5.48;83.61
65203;HTU21D;51788;45.124;38.966;2023-11-21T09:26:35;5.47;83.50
65203;HTU21D;51788;45.124;38.966;2023-11-21T09:29:01;5.48;83.51
65203;HTU21D;51788;45.124;38.966;2023-11-21T09:31:27;5.49;83.26
65203;HTU21D;51788;45.124;38.966;2023-11-21T09:33:54;5.52;83.52
65203;HTU21D;51788;45.124;38.966;2023-11-21T09:36:20;5.56;83.53
65203;HTU21D;51788;45.124;38.966;2023-11-21T09:38:49;5.61;83.57
65203;HTU21D;51788;45.124;38.966;2023-11-21T09:41:43;5.62;83.41
65203;HTU21D;51788;45.124;38.966;2023-11-21T09:44:13;5.62;83.48
65203;HTU21D;51788;45.124;38.966;2023-11-21T09:46:42;5.52;83.45
65203;HTU21D;51788;45.124;38.966;2023-11-21T09:49:09;5.50;83.79
65203;HTU21D;51788;45.124;38.966;2023-11-21T09:51:43;5.55;83.78
65203;HTU21D;51788;45.124;38.966;2023-11-21T09:54:10;5.57;83.64
65203;HTU21D;51788;45.124;38.966;2023-11-21T09:56:40;5.57;83.78
65203;HTU21D;51788;45.124;38.966;2023-11-21T09:59:06;5.61;83.78
65203;HTU21D;51788;45.124;38.966;2023-11-21T10:01:38;5.62;83.71
65203;HTU21D;51788;45.124;38.966;2023-11-21T10:04:06;5.63;83.94
65203;HTU21D;51788;45.124;38.966;2023-11-21T10:06:41;5.76;83.99
65203;HTU21D;51788;45.124;38.966;2023-11-21T10:09:10;5.91;83.90
65203;HTU21D;51788;45.124;38.966;2023-11-21T10:11:43;6.00;83.76
65203;HTU21D;51788;45.124;38.966;2023-11-21T10:14:11;5.99;83.73
65203;HTU21D;51788;45.124;38.966;2023-11-21T10:16:41;5.99;83.85
65203;HTU21D;51788;45.124;38.966;2023-11-21T10:19:10;5.99;84.00
65203;HTU21D;51788;45.124;38.966;2023-11-21T10:21:38;5.96;83.98
65203;HTU21D;51788;45.124;38.966;2023-11-21T10:24:05;5.93;84.17
65203;HTU21D;51788;45.124;38.966;2023-11-21T10:26:32;5.91;84.35
65203;HTU21D;51788;45.124;38.966;2023-11-21T10:29:00;5.91;84.39
65203;HTU21D;51788;45.124;38.966;2023-11-21T10:31:27;5.89;84.48
65203;HTU21D;51788;45.124;38.966;2023-11-21T10:33:53;5.90;84.58
65203;HTU21D;51788;45.124;38.966;2023-11-21T10:36:26;5.93;84.55
65203;HTU21D;51788;45.124;38.966;2023-11-21T10:38:53;5.95;84.54
65203;HTU21D;51788;45.124;38.966;2023-11-21T10:41:20;5.98;84.55
65203;HTU21D;51788;45.124;38.966;2023-11-21T10:43:47;6.00;84.51
65203;HTU21D;51788;45.124;38.966;2023-11-21T10:46:14;5.98;84.50
65203;HTU21D;51788;45.124;38.966;2023-11-21T10:48:42;6.00;84.55
65203;HTU21D;51788;45.124;38.966;2023-11-21T10:51:08;5.97;84.55
65203;HTU21D;51788;45.124;38.966;2023-11-21T10:53:42;5.95;84.61
65203;HTU21D;51788;45.124;38.966;2023-11-21T10:56:09;5.93;84.61
65203;HTU21D;51788;45.124;38.966;2023-11-21T10:58:40;5.89;84.76
65203;HTU21D;51788;45.124;38.966;2023-11-21T11:01:07;5.91;84.84
65203;HTU21D;51788;45.124;38.966;2023-11-21T11:03:35;5.99;84.76
65203;HTU21D;51788;45.124;38.966;2023-11-21T11:06:06;6.07;84.72
65203;HTU21D;51788;45.124;38.966;2023-11-21T11:08:37;6.06;84.64
65203;HTU21D;51788;45.124;38.966;2023-11-21T11:11:07;6.00;84.62
65203;HTU21D;51788;45.124;38.966;2023-11-21T11:13:35;5.97;84.71
65203;HTU21D;51788;45.124;38.966;2023-11-21T11:16:03;5.97;84.70
65203;HTU21D;51788;45.124;38.966;2023-11-21T11:18:33;5.96;84.77
65203;HTU21D;51788;45.124;38.966;2023-11-21T11:26:59;6.07;84.75
65203;HTU21D;51788;45.124;38.966;2023-11-21T11:29:48;6.14;84.59
65203;HTU21D;51788;45.124;38.966;2023-11-21T11:32:29;6.13;84.48
65203;HTU21D;51788;45.124;38.966;2023-11-21T11:35:05;6.15;84.46
65203;HTU21D;51788;45.124;38.966;2023-11-21T11:37:33;6.19;84.39
65203;HTU21D;51788;45.124;38.966;2023-11-21T11:39:59;6.17;84.31
65203;HTU21D;51788;45.124;38.966;2023-11-21T11:42:26;6.17;84.45
65203;HTU21D;51788;45.124;38.966;2023-11-21T11:44:53;6.12;84.54
65203;HTU21D;51788;45.124;38.966;2023-11-21T11:50:10;6.13;84.88
65203;HTU21D;51788;45.124;38.966;2023-11-21T11:52:44;6.12;84.90
65203;HTU21D;51788;45.124;38.966;2023-11-21T11:55:12;6.07;85.21
65203;HTU21D;51788;45.124;38.966;2023-11-21T11:57:42;6.08;85.38
65203;HTU21D;51788;45.124;38.966;2023-11-21T12:00:16;6.08;85.50
65203;HTU21D;51788;45.124;38.966;2023-11-21T12:02:47;6.08;85.59
65203;HTU21D;51788;45.124;38.966;2023-11-21T12:05:18;6.06;85.67
65203;HTU21D;51788;45.124;38.966;2023-11-21T12:07:55;5.99;85.80
65203;HTU21D;51788;45.124;38.966;2023-11-21T12:10:24;5.93;85.91
65203;HTU21D;51788;45.124;38.966;2023-11-21T12:12:56;5.86;86.13
65203;HTU21D;51788;45.124;38.966;2023-11-21T12:15:22;5.85;86.40
65203;HTU21D;51788;45.124;38.966;2023-11-21T12:17:49;5.78;86.26
65203;HTU21D;51788;45.124;38.966;2023-11-21T12:20:18;5.77;86.44
65203;HTU21D;51788;45.124;38.966;2023-11-21T12:22:58;5.78;86.46
65203;HTU21D;51788;45.124;38.966;2023-11-21T12:25:29;5.76;86.48
65203;HTU21D;51788;45.124;38.966;2023-11-21T12:27:58;5.77;86.49
65203;HTU21D;51788;45.124;38.966;2023-11-21T12:30:35;5.76;86.58
65203;HTU21D;51788;45.124;38.966;2023-11-21T12:33:04;5.76;86.51
65203;HTU21D;51788;45.124;38.966;2023-11-21T12:35:33;5.75;86.53
65203;HTU21D;51788;45.124;38.966;2023-11-21T12:38:01;5.77;86.60
65203;HTU21D;51788;45.124;38.966;2023-11-21T12:40:34;5.79;86.59
65203;HTU21D;51788;45.124;38.966;2023-11-21T12:43:01;5.84;86.57
65203;HTU21D;51788;45.124;38.966;2023-11-21T12:45:30;5.89;86.53
65203;HTU21D;51788;45.124;38.966;2023-11-21T12:48:01;5.86;86.55
65203;HTU21D;51788;45.124;38.966;2023-11-21T12:50:30;5.83;86.62
65203;HTU21D;51788;45.124;38.966;2023-11-21T12:53:08;5.80;86.70
65203;HTU21D;51788;45.124;38.966;2023-11-21T12:55:36;5.81;86.75
65203;HTU21D;51788;45.124;38.966;2023-11-21T12:58:06;5.82;86.84
65203;HTU21D;51788;45.124;38.966;2023-11-21T13:00:48;5.87;86.90
65203;HTU21D;51788;45.124;38.966;2023-11-21T13:03:16;5.92;86.86
65203;HTU21D;51788;45.124;38.966;2023-11-21T13:05:46;5.91;86.86
65203;HTU21D;51788;45.124;38.966;2023-11-21T13:08:16;5.94;86.93
65203;HTU21D;51788;45.124;38.966;2023-11-21T13:10:46;5.95;86.99
65203;HTU21D;51788;45.124;38.966;2023-11-21T13:13:15;5.95;87.00
65203;HTU21D;51788;45.124;38.966;2023-11-21T13:15:54;5.94;87.01
65203;HTU21D;51788;45.124;38.966;2023-11-21T13:18:24;5.94;86.95
65203;HTU21D;51788;45.124;38.966;2023-11-21T13:20:53;5.95;86.96
65203;HTU21D;51788;45.124;38.966;2023-11-21T13:23:20;5.93;86.99
65203;HTU21D;51788;45.124;38.966;2023-11-21T13:25:48;5.95;86.99
65203;HTU21D;51788;45.124;38.966;2023-11-21T13:28:15;5.95;87.00
65203;HTU21D;51788;45.124;38.966;2023-11-21T13:30:41;5.99;86.94
65203;HTU21D;51788;45.124;38.966;2023-11-21T13:33:08;6.00;86.89
65203;HTU21D;51788;45.124;38.966;2023-11-21T13:35:35;6.02;86.91
65203;HTU21D;51788;45.124;38.966;2023-11-21T13:38:10;6.06;86.90
65203;HTU21D;51788;45.124;38.966;2023-11-21T13:40:37;6.06;86.88
65203;HTU21D;51788;45.124;38.966;2023-11-21T13:43:11;6.09;86.93
65203;HTU21D;51788;45.124;38.966;2023-11-21T13:45:39;6.11;86.93
65203;HTU21D;51788;45.124;38.966;2023-11-21T13:48:06;6.13;86.92
65203;HTU21D;51788;45.124;38.966;2023-11-21T13:50:36;6.14;86.83
65203;HTU21D;51788;45.124;38.966;2023-11-21T13:53:03;6.13;86.83
65203;HTU21D;51788;45.124;38.966;2023-11-21T13:55:52;6.15;86.80
65203;HTU21D;51788;45.124;38.966;2023-11-21T13:58:23;6.17;86.70
65203;HTU21D;51788;45.124;38.966;2023-11-21T14:01:13;6.17;86.61
65203;HTU21D;51788;45.124;38.966;2023-11-21T14:03:59;6.17;86.42
65203;HTU21D;51788;45.124;38.966;2023-11-21T14:06:49;6.16;86.32
65203;HTU21D;51788;45.124;38.966;2023-11-21T14:09:21;6.16;86.29
65203;HTU21D;51788;45.124;38.966;2023-11-21T14:12:01;6.17;85.74
65203;HTU21D;51788;45.124;38.966;2023-11-21T14:14:32;6.16;85.64
65203;HTU21D;51788;45.124;38.966;2023-11-21T14:16:58;6.13;85.35
65203;HTU21D;51788;45.124;38.966;2023-11-21T14:19:24;6.13;85.32
65203;HTU21D;51788;45.124;38.966;2023-11-21T14:21:57;6.11;85.19
65203;HTU21D;51788;45.124;38.966;2023-11-21T14:24:24;6.10;85.13
65203;HTU21D;51788;45.124;38.966;2023-11-21T14:26:51;6.11;85.19
65203;HTU21D;51788;45.124;38.966;2023-11-21T14:29:18;6.13;84.87
65203;HTU21D;51788;45.124;38.966;2023-11-21T14:31:49;6.14;84.58
65203;HTU21D;51788;45.124;38.966;2023-11-21T14:34:17;6.14;84.42
65203;HTU21D;51788;45.124;38.966;2023-11-21T14:36:44;6.15;84.42
65203;HTU21D;51788;45.124;38.966;2023-11-21T14:39:10;6.14;84.23
65203;HTU21D;51788;45.124;38.966;2023-11-21T14:41:50;6.15;83.88
65203;HTU21D;51788;45.124;38.966;2023-11-21T14:44:16;6.15;83.31
65203;HTU21D;51788;45.124;38.966;2023-11-21T14:46:42;6.12;82.81
65203;HTU21D;51788;45.124;38.966;2023-11-21T14:49:13;6.08;82.90
65203;HTU21D;51788;45.124;38.966;2023-11-21T14:51:46;6.06;82.70
65203;HTU21D;51788;45.124;38.966;2023-11-21T14:54:32;5.98;82.52
65203;HTU21D;51788;45.124;38.966;2023-11-21T14:57:11;5.95;82.46
65203;HTU21D;51788;45.124;38.966;2023-11-21T14:59:42;5.95;82.20
65203;HTU21D;51788;45.124;38.966;2023-11-21T15:02:08;5.94;82.33
65203;HTU21D;51788;45.124;38.966;2023-11-21T15:04:43;5.95;82.11
65203;HTU21D;51788;45.124;38.966;2023-11-21T15:07:10;5.92;82.04
65203;HTU21D;51788;45.124;38.966;2023-11-21T15:09:40;5.89;81.95
65203;HTU21D;51788;45.124;38.966;2023-11-21T15:12:11;5.89;82.14
65203;HTU21D;51788;45.124;38.966;2023-11-21T15:14:47;5.89;82.13
65203;HTU21D;51788;45.124;38.966;2023-11-21T15:17:16;5.87;82.20
65203;HTU21D;51788;45.124;38.966;2023-11-21T15:19:56;5.86;81.87
65203;HTU21D;51788;45.124;38.966;2023-11-21T15:22:23;5.85;81.82
65203;HTU21D;51788;45.124;38.966;2023-11-21T15:24:49;5.83;81.97
65203;HTU21D;51788;45.124;38.966;2023-11-21T15:27:16;5.84;81.92
65203;HTU21D;51788;45.124;38.966;2023-11-21T15:29:43;5.85;81.83
65203;HTU21D;51788;45.124;38.966;2023-11-21T15:32:10;5.86;81.83